TimeEST,TemperatureF,Dew PointF,Humidity,Sea Level PressureIn,VisibilityMPH,Wind Direction,Wind SpeedMPH,Gust SpeedMPH,PrecipitationIn,Events,Conditions,WindDirDegrees,DateUTC
12:56 AM,34.0,30.0,85,30.19,5.0,Calm,Calm,-,N/A,,Clear,0,2012-11-09 05:56:00
1:56 AM,34.0,30.9,89,30.20,5.0,Calm,Calm,-,N/A,,Clear,0,2012-11-09 06:56:00
2:56 AM,33.1,30.9,92,30.21,4.0,SW,3.5,-,N/A,,Clear,220,2012-11-09 07:56:00
3:56 AM,34.0,30.0,85,30.21,4.0,Calm,Calm,-,N/A,,Clear,0,2012-11-09 08:56:00
4:56 AM,32.0,28.9,88,30.22,7.0,South,3.5,-,N/A,,Clear,180,2012-11-09 09:56:00
5:56 AM,36.0,32.0,86,30.24,6.0,SSW,5.8,-,N/A,,Clear,200,2012-11-09 10:56:00
6:56 AM,35.6,32.0,87,30.23,5.0,SSW,5.8,-,N/A,,Clear,210,2012-11-09 11:56:00
7:56 AM,35.1,32.0,89,30.26,4.0,South,5.8,-,N/A,,Clear,180,2012-11-09 12:56:00
8:56 AM,41.0,35.1,79,30.25,4.0,South,6.9,-,N/A,,Haze,190,2012-11-09 13:56:00
9:56 AM,45.0,36.0,71,30.25,6.0,South,9.2,-,N/A,,Haze,190,2012-11-09 14:56:00
10:56 AM,48.9,37.9,66,30.25,6.0,South,9.2,-,N/A,,Haze,190,2012-11-09 15:56:00
11:56 AM,52.0,39.0,61,30.23,8.0,SSW,12.7,-,N/A,,Clear,200,2012-11-09 16:56:00
12:56 PM,54.0,39.0,57,30.19,8.0,South,12.7,-,N/A,,Clear,180,2012-11-09 17:56:00
1:56 PM,55.9,37.0,49,30.17,10.0,SSW,12.7,-,N/A,,Clear,200,2012-11-09 18:56:00
2:56 PM,57.0,37.0,47,30.16,10.0,South,12.7,-,N/A,,Clear,180,2012-11-09 19:56:00
3:56 PM,57.0,37.0,47,30.14,9.0,South,10.4,-,N/A,,Partly Cloudy,190,2012-11-09 20:56:00
4:56 PM,55.9,37.0,49,30.15,10.0,South,9.2,-,N/A,,Scattered Clouds,180,2012-11-09 21:56:00
5:56 PM,52.0,37.9,59,30.15,10.0,SSE,6.9,-,N/A,,Scattered Clouds,160,2012-11-09 22:56:00
6:56 PM,53.1,37.9,57,30.14,10.0,SSE,10.4,-,N/A,,Scattered Clouds,160,2012-11-09 23:56:00
7:56 PM,52.0,37.9,59,30.14,10.0,South,8.1,-,N/A,,Mostly Cloudy,170,2012-11-10 00:56:00
8:56 PM,53.1,37.9,57,30.13,10.0,South,12.7,-,N/A,,Mostly Cloudy,170,2012-11-10 01:56:00
9:56 PM,54.0,37.9,55,30.13,10.0,South,11.5,-,N/A,,Mostly Cloudy,180,2012-11-10 02:56:00
10:56 PM,54.0,37.9,55,30.13,10.0,South,11.5,-,N/A,,Overcast,190,2012-11-10 03:56:00
11:56 PM,54.0,37.9,55,30.13,10.0,South,11.5,-,N/A,,Mostly Cloudy,190,2012-11-10 04:56:00